Terminal Aerodrome Forecast
Issued by NWS

Current Version | Previous Version | Graphics & Text | Print | Product List | Glossary On
Versions: 1 2 3 4 5 6 7 8 9 10 11 12 13 14 15 16 17 18 19 20 21 22 23 24 25 26 27 28 29 30 31 32 33 34
000
FTUS41 KRLX 171100
TAFCKB
TAF
KCKB 171135Z 1712/1812 24007KT P6SM BKN015 OVC020
     FM171500 22007KT P6SM BKN035
     FM171700 20010G17KT P6SM BKN250
     FM172300 22008KT P6SM BKN090=

USA.gov is the U.S. government's official web portal to all federal, state and local government web resources and services.